createdAt,value
2022-08-21T00:01:03.503Z,1.20
2022-08-21T00:03:10.822Z,0.82
2022-08-21T00:05:12.401Z,0.82
2022-08-21T00:07:14.295Z,0.75
2022-08-21T00:09:15.805Z,0.80
2022-08-21T00:11:18.130Z,0.80
2022-08-21T00:13:20.922Z,0.90
2022-08-21T00:15:27.337Z,0.80
2022-08-21T00:17:28.877Z,0.85
2022-08-21T00:19:31.056Z,1.10
2022-08-21T00:21:33.568Z,0.98
2022-08-21T00:23:36.335Z,0.82
2022-08-21T00:25:38.893Z,0.90
2022-08-21T00:27:42.971Z,0.90
2022-08-21T00:29:44.695Z,0.98
2022-08-21T00:31:46.609Z,1.10
2022-08-21T00:33:48.146Z,0.60
2022-08-21T00:35:49.685Z,0.70
2022-08-21T00:37:51.238Z,0.98
2022-08-21T00:39:54.264Z,1.10
2022-08-21T00:41:56.040Z,0.93
2022-08-21T00:43:57.745Z,1.10
2022-08-21T00:45:59.678Z,0.80
2022-08-21T00:48:01.708Z,1.00
2022-08-21T00:50:05.995Z,1.00
2022-08-21T00:52:11.908Z,0.93
2022-08-21T00:54:18.841Z,0.70
2022-08-21T00:56:22.408Z,1.00
2022-08-21T00:58:25.372Z,1.20
2022-08-21T01:00:31.429Z,0.93
2022-08-21T01:02:32.913Z,1.10
2022-08-21T01:04:35.422Z,0.90
2022-08-21T01:06:36.913Z,1.02
2022-08-21T01:08:38.827Z,1.05
2022-08-21T01:10:48.929Z,0.98
2022-08-21T01:12:57.271Z,0.90
2022-08-21T01:14:59.710Z,0.88
2022-08-21T01:17:04.084Z,0.90
2022-08-21T01:19:07.373Z,0.85
2022-08-21T01:21:16.960Z,1.17
2022-08-21T01:23:18.466Z,0.90
2022-08-21T01:25:22.923Z,0.90
2022-08-21T01:27:24.543Z,1.08
2022-08-21T01:29:51.199Z,0.80
2022-08-21T01:31:52.731Z,1.05
2022-08-21T01:33:55.423Z,1.08
2022-08-21T01:35:57.452Z,0.88
2022-08-21T01:37:59.176Z,0.88
2022-08-21T01:40:00.982Z,1.08
2022-08-21T01:42:03.045Z,0.80
2022-08-21T01:44:05.460Z,1.05
2022-08-21T01:46:07.307Z,1.20
2022-08-21T01:48:08.832Z,1.13
2022-08-21T01:50:13.071Z,0.90
2022-08-21T01:52:14.626Z,0.98
2022-08-21T01:54:16.314Z,0.98
2022-08-21T01:56:18.545Z,0.75
2022-08-21T01:58:20.240Z,0.88
2022-08-21T02:00:26.274Z,0.80
2022-08-21T02:02:27.827Z,0.95
2022-08-21T02:04:29.396Z,1.17
2022-08-21T02:06:30.905Z,1.00
2022-08-21T02:08:32.824Z,0.70
2022-08-21T02:10:34.415Z,1.33
2022-08-21T02:12:36.178Z,1.10
2022-08-21T02:14:38.402Z,0.93
2022-08-21T02:16:41.874Z,1.05
2022-08-21T02:18:44.210Z,1.13
2022-08-21T02:20:48.750Z,0.95
2022-08-21T02:22:57.588Z,0.70
2022-08-21T02:24:59.203Z,1.08
2022-08-21T02:27:00.720Z,0.85
2022-08-21T02:29:04.076Z,1.20
2022-08-21T02:31:07.004Z,1.08
2022-08-21T02:33:10.917Z,0.80
2022-08-21T02:35:13.128Z,1.13
2022-08-21T02:37:14.629Z,1.00
2022-08-21T02:39:16.140Z,0.80
2022-08-21T02:41:28.758Z,0.75
2022-08-21T02:43:30.437Z,0.80
2022-08-21T02:45:32.390Z,0.90
2022-08-21T02:47:34.007Z,0.90
2022-08-21T02:49:35.554Z,0.85
2022-08-21T02:51:37.079Z,0.80
2022-08-21T02:53:38.636Z,1.00
2022-08-21T02:55:40.301Z,1.00
2022-08-21T02:57:41.861Z,0.80
2022-08-21T02:59:45.459Z,0.70
2022-08-21T03:01:47.026Z,1.00
2022-08-21T03:03:52.367Z,0.88
2022-08-21T03:05:53.945Z,1.15
2022-08-21T03:07:55.606Z,1.00
2022-08-21T03:09:57.139Z,1.15
2022-08-21T03:11:58.706Z,0.75
2022-08-21T03:14:00.343Z,1.00
2022-08-21T03:16:02.014Z,0.70
2022-08-21T03:18:08.126Z,0.82
2022-08-21T03:20:10.711Z,0.80
2022-08-21T03:22:12.237Z,1.00
2022-08-21T03:24:13.724Z,1.10
2022-08-21T03:26:15.315Z,1.15
2022-08-21T03:28:20.799Z,0.80
2022-08-21T03:30:23.408Z,1.08
2022-08-21T03:32:24.903Z,0.93
2022-08-21T03:34:26.430Z,0.80
2022-08-21T03:36:27.965Z,0.90
2022-08-21T03:38:32.295Z,1.50
2022-08-21T03:40:33.827Z,1.45
2022-08-21T03:42:35.851Z,1.13
2022-08-21T03:44:38.473Z,1.10
2022-08-21T03:46:41.119Z,0.93
2022-08-21T03:48:42.648Z,1.10
2022-08-21T03:50:45.077Z,1.25
2022-08-21T03:52:46.566Z,0.77
2022-08-21T03:54:48.233Z,0.80
2022-08-21T03:56:50.362Z,0.90
2022-08-21T03:58:52.347Z,0.75
2022-08-21T04:00:56.472Z,0.73
2022-08-21T04:02:58.127Z,1.10
2022-08-21T04:04:59.724Z,0.90
2022-08-21T04:07:01.317Z,1.02
2022-08-21T04:09:03.127Z,0.85
2022-08-21T04:11:06.537Z,0.80
2022-08-21T04:13:09.216Z,0.80
2022-08-21T04:15:10.896Z,0.73
2022-08-21T04:17:12.385Z,0.80
2022-08-21T04:19:15.007Z,1.30
2022-08-21T04:21:16.678Z,1.02
2022-08-21T04:23:23.545Z,0.75
2022-08-21T04:25:28.710Z,0.90
2022-08-21T04:27:30.186Z,0.98
2022-08-21T04:29:31.684Z,0.60
2022-08-21T04:31:34.472Z,0.85
2022-08-21T04:33:36.191Z,1.00
2022-08-21T04:35:37.754Z,0.82
2022-08-21T04:37:42.038Z,1.00
2022-08-21T04:39:44.113Z,0.98
2022-08-21T04:41:45.640Z,0.98
2022-08-21T04:43:47.555Z,0.90
2022-08-21T04:45:50.220Z,1.00
2022-08-21T04:47:53.702Z,1.20
2022-08-21T04:49:55.188Z,1.00
2022-08-21T04:51:56.790Z,0.98
2022-08-21T04:54:13.026Z,1.00
2022-08-21T04:56:22.932Z,1.20
2022-08-21T04:58:27.964Z,0.88
2022-08-21T05:00:29.633Z,0.82
2022-08-21T05:02:33.933Z,1.13
2022-08-21T05:04:38.955Z,1.10
2022-08-21T05:06:45.087Z,1.25
2022-08-21T05:08:49.849Z,0.90
2022-08-21T05:10:51.564Z,0.93
2022-08-21T05:12:53.838Z,0.88
2022-08-21T05:14:55.396Z,0.90
2022-08-21T05:16:56.928Z,1.00
2022-08-21T05:18:59.627Z,1.27
2022-08-21T05:21:01.143Z,1.00
2022-08-21T05:23:08.984Z,1.00
2022-08-21T05:25:11.341Z,1.08
2022-08-21T05:27:12.843Z,0.93
2022-08-21T05:29:20.117Z,1.40
2022-08-21T05:31:21.706Z,1.23
2022-08-21T05:33:23.436Z,0.85
2022-08-21T05:35:25.288Z,1.13
2022-08-21T05:37:26.804Z,1.20
2022-08-21T05:39:28.317Z,1.20
2022-08-21T05:41:50.283Z,1.10
2022-08-21T05:43:52.000Z,1.23
2022-08-21T05:45:53.639Z,1.23
2022-08-21T05:47:55.311Z,1.70
2022-08-21T05:49:56.796Z,1.23
2022-08-21T05:51:58.417Z,1.70
2022-08-21T05:53:59.940Z,1.52
2022-08-21T05:56:04.517Z,1.60
2022-08-21T05:58:06.177Z,1.48
2022-08-21T06:00:13.454Z,2.40
2022-08-21T06:02:15.581Z,1.80
2022-08-21T06:04:17.328Z,2.00
2022-08-21T06:06:18.855Z,1.80
2022-08-21T06:08:21.423Z,1.48
2022-08-21T06:10:23.028Z,1.83
2022-08-21T06:12:25.809Z,1.70
2022-08-21T06:14:27.269Z,2.03
2022-08-21T06:16:30.226Z,1.73
2022-08-21T06:18:31.871Z,2.40
2022-08-21T06:20:33.971Z,2.10
2022-08-21T06:22:35.481Z,2.28
2022-08-21T06:24:37.151Z,2.25
2022-08-21T06:26:39.094Z,3.15
2022-08-21T06:28:41.743Z,2.30
2022-08-21T06:30:43.568Z,2.75
2022-08-21T06:32:45.229Z,2.78
2022-08-21T06:34:46.718Z,2.42
2022-08-21T06:36:48.249Z,2.63
2022-08-21T06:38:51.931Z,2.45
2022-08-21T06:40:53.558Z,2.63
2022-08-21T06:42:55.294Z,2.95
2022-08-21T06:44:59.221Z,2.65
2022-08-21T06:47:00.823Z,2.35
2022-08-21T06:49:02.321Z,2.55
2022-08-21T06:51:03.956Z,2.08
2022-08-21T06:53:11.621Z,2.70
2022-08-21T06:55:13.281Z,2.60
2022-08-21T06:57:23.360Z,3.05
2022-08-21T06:59:24.885Z,3.00
2022-08-21T07:01:27.763Z,2.80
2022-08-21T07:03:40.653Z,2.75
2022-08-21T07:05:42.126Z,2.97
2022-08-21T07:07:44.100Z,2.67
2022-08-21T07:09:48.769Z,2.55
2022-08-21T07:11:54.294Z,2.72
2022-08-21T07:13:57.473Z,2.35
2022-08-21T07:16:03.668Z,2.28
2022-08-21T07:18:06.626Z,2.53
2022-08-21T07:20:08.544Z,2.47
2022-08-21T07:22:10.162Z,2.80
2022-08-21T07:24:11.744Z,2.90
2022-08-21T07:26:15.169Z,2.10
2022-08-21T07:28:16.650Z,2.13
2022-08-21T07:30:18.226Z,2.10
2022-08-21T07:32:21.466Z,2.65
2022-08-21T07:34:23.059Z,2.00
2022-08-21T07:36:24.975Z,2.35
2022-08-21T07:38:26.821Z,2.00
2022-08-21T07:40:28.329Z,1.85
2022-08-21T07:42:29.936Z,1.30
2022-08-21T07:44:31.500Z,1.92
2022-08-21T07:46:33.186Z,2.05
2022-08-21T07:48:34.685Z,2.45
2022-08-21T07:50:36.601Z,1.90
2022-08-21T07:52:38.081Z,1.98
2022-08-21T07:54:39.632Z,1.52
2022-08-21T07:56:41.256Z,1.58
2022-08-21T07:58:42.738Z,1.83
2022-08-21T08:00:44.367Z,2.15
2022-08-21T08:02:50.387Z,1.48
2022-08-21T08:04:52.215Z,1.25
2022-08-21T08:06:54.030Z,1.58
2022-08-21T08:08:55.584Z,0.90
2022-08-21T08:10:58.938Z,1.23
2022-08-21T08:13:00.736Z,1.00
2022-08-21T08:15:04.139Z,1.30
2022-08-21T08:17:05.732Z,1.13
2022-08-21T08:19:07.231Z,0.80
2022-08-21T08:21:10.082Z,1.05
2022-08-21T08:23:13.539Z,0.90
2022-08-21T08:25:15.696Z,0.77
2022-08-21T08:27:18.196Z,0.90
2022-08-21T08:29:19.660Z,1.00
2022-08-21T08:31:21.276Z,1.33
2022-08-21T08:33:23.358Z,0.73
2022-08-21T08:35:26.044Z,1.02
2022-08-21T08:37:31.523Z,0.82
2022-08-21T08:39:36.578Z,0.70
2022-08-21T08:41:38.669Z,0.60
2022-08-21T08:43:43.577Z,0.80
2022-08-21T08:45:50.415Z,0.65
2022-08-21T08:48:01.172Z,0.80
2022-08-21T08:50:08.416Z,0.82
2022-08-21T08:52:22.089Z,0.85
2022-08-21T08:54:36.407Z,0.90
2022-08-21T08:56:38.071Z,1.98
2022-08-21T08:58:44.530Z,1.27
2022-08-21T09:00:50.029Z,1.80
2022-08-21T09:02:58.042Z,1.58
2022-08-21T09:05:00.844Z,0.93
2022-08-21T09:07:46.250Z,2.25
2022-08-21T09:10:11.743Z,1.17
2022-08-21T09:12:19.686Z,1.35
2022-08-21T09:14:55.754Z,1.20
2022-08-21T09:17:11.804Z,1.20
2022-08-21T09:19:24.787Z,1.25
2022-08-21T09:22:00.632Z,1.15
2022-08-21T09:24:16.273Z,1.10
2022-08-21T09:26:24.571Z,1.10
2022-08-21T09:28:27.452Z,1.27
2022-08-21T09:30:31.998Z,1.05
2022-08-21T09:32:37.781Z,1.63
2022-08-21T09:34:39.624Z,1.15
2022-08-21T09:36:46.450Z,0.90
2022-08-21T09:38:54.254Z,1.67
2022-08-21T09:41:13.974Z,1.05
2022-08-21T09:43:15.407Z,1.00
2022-08-21T09:45:19.484Z,1.27
2022-08-21T09:47:26.208Z,1.85
2022-08-21T09:49:37.943Z,1.30
2022-08-21T09:51:39.443Z,1.35
2022-08-21T09:53:52.614Z,0.93
2022-08-21T09:56:24.198Z,0.88
2022-08-21T09:58:35.025Z,1.33
2022-08-21T10:00:37.133Z,1.05
2022-08-21T10:02:39.255Z,1.20
2022-08-21T10:04:42.705Z,1.23
2022-08-21T10:06:44.196Z,0.90
2022-08-21T10:08:45.696Z,1.02
2022-08-21T10:10:52.599Z,0.95
2022-08-21T10:13:12.735Z,1.15
2022-08-21T10:15:28.912Z,1.02
2022-08-21T10:17:45.711Z,1.13
2022-08-21T10:20:10.428Z,1.13
2022-08-21T10:22:41.616Z,0.88
2022-08-21T10:25:04.340Z,1.05
2022-08-21T10:27:24.012Z,0.95
2022-08-21T10:29:52.667Z,0.95
2022-08-21T10:31:56.953Z,1.17
2022-08-21T10:34:21.608Z,0.95
2022-08-21T10:36:36.597Z,1.20
2022-08-21T10:39:17.708Z,0.90
2022-08-21T10:41:59.583Z,0.80
2022-08-21T10:44:33.649Z,1.15
2022-08-21T10:46:50.294Z,1.05
2022-08-21T10:48:59.672Z,1.23
2022-08-21T10:51:12.648Z,0.90
2022-08-21T10:53:26.434Z,0.95
2022-08-21T10:55:32.781Z,0.80
2022-08-21T10:57:43.931Z,0.90
2022-08-21T10:59:54.849Z,0.93
2022-08-21T11:02:31.841Z,1.45
2022-08-21T11:04:53.360Z,0.70
2022-08-21T11:07:03.752Z,0.77
2022-08-21T11:09:15.991Z,1.00
2022-08-21T11:11:29.408Z,0.85
2022-08-21T11:13:48.794Z,0.93
2022-08-21T11:16:30.535Z,0.82
2022-08-21T11:18:47.226Z,1.17
2022-08-21T11:21:17.318Z,1.10
2022-08-21T11:23:26.162Z,0.77
2022-08-21T11:25:36.902Z,0.95
2022-08-21T11:27:57.074Z,0.75
2022-08-21T11:30:00.877Z,1.13
2022-08-21T11:32:11.421Z,0.50
2022-08-21T11:34:31.375Z,0.90
2022-08-21T11:39:27.845Z,1.00
2022-08-21T11:41:35.482Z,0.50
2022-08-21T11:43:47.599Z,0.75
2022-08-21T11:46:00.853Z,0.80
2022-08-21T11:48:13.500Z,0.85
2022-08-21T11:50:34.855Z,0.90
2022-08-21T11:53:03.511Z,0.65
2022-08-21T11:55:16.438Z,0.75
2022-08-21T11:57:36.669Z,0.73
2022-08-21T11:59:53.526Z,0.70
2022-08-21T12:01:55.455Z,0.50
2022-08-21T12:04:03.329Z,0.55
2022-08-21T12:06:24.271Z,0.50
2022-08-21T12:08:53.534Z,0.65
2022-08-21T12:11:21.222Z,0.88
2022-08-21T12:13:40.067Z,0.80
2022-08-21T12:15:42.308Z,0.60
2022-08-21T12:18:27.112Z,0.70
2022-08-21T12:20:40.001Z,0.65
2022-08-21T12:23:04.375Z,0.50
2022-08-21T12:25:11.561Z,0.88
2022-08-21T12:27:32.289Z,0.88
2022-08-21T12:29:38.156Z,1.08
2022-08-21T12:32:07.726Z,0.90
2022-08-21T12:34:11.484Z,0.70
2022-08-21T12:36:16.810Z,0.80
2022-08-21T12:38:27.745Z,0.73
2022-08-21T12:40:42.618Z,0.70
2022-08-21T12:42:58.658Z,0.70
2022-08-21T12:45:05.960Z,0.50
2022-08-21T12:47:37.574Z,0.88
2022-08-21T12:49:59.140Z,1.00
2022-08-21T12:52:28.794Z,1.15
2022-08-21T12:54:39.118Z,0.90
2022-08-21T12:56:40.866Z,0.80
2022-08-21T12:58:47.721Z,0.85
2022-08-21T13:01:02.627Z,0.75
2022-08-21T13:03:04.494Z,0.73
2022-08-21T13:05:08.622Z,0.90
2022-08-21T13:07:17.113Z,0.82
2022-08-21T13:09:26.892Z,0.60
2022-08-21T13:11:33.724Z,0.55
2022-08-21T13:13:35.746Z,1.00
2022-08-21T13:15:47.735Z,0.68
2022-08-21T13:17:51.936Z,0.80
2022-08-21T13:20:06.278Z,1.30
2022-08-21T13:22:33.541Z,0.65
2022-08-21T13:24:42.718Z,0.90
2022-08-21T13:26:45.457Z,0.90
2022-08-21T13:28:48.508Z,0.85
2022-08-21T13:30:56.625Z,0.75
2022-08-21T13:33:09.757Z,1.70
2022-08-21T13:35:21.904Z,0.80
2022-08-21T13:37:25.978Z,0.98
2022-08-21T13:39:27.918Z,0.70
2022-08-21T13:41:36.058Z,1.00
2022-08-21T13:43:38.506Z,2.60
2022-08-21T13:45:40.041Z,1.27
2022-08-21T13:47:42.610Z,1.75
2022-08-21T13:49:47.433Z,1.00
2022-08-21T13:51:49.269Z,0.95
2022-08-21T13:53:53.399Z,1.20
2022-08-21T13:55:59.975Z,0.80
2022-08-21T13:58:04.578Z,0.80
2022-08-21T14:00:12.808Z,0.80
2022-08-21T14:02:19.161Z,0.80
2022-08-21T14:04:36.909Z,0.85
2022-08-21T14:06:39.206Z,0.68
2022-08-21T14:08:44.209Z,0.80
2022-08-21T14:10:57.168Z,1.00
2022-08-21T14:13:03.493Z,1.00
2022-08-21T14:15:06.402Z,1.52
2022-08-21T14:17:24.366Z,1.00
2022-08-21T14:19:39.908Z,1.13
2022-08-21T14:21:46.943Z,0.90
2022-08-21T14:23:48.447Z,1.10
2022-08-21T14:25:50.084Z,0.90
2022-08-21T14:27:55.608Z,1.10
2022-08-21T14:30:04.504Z,1.00
2022-08-21T14:32:21.891Z,1.25
2022-08-21T14:34:34.095Z,1.08
2022-08-21T14:36:37.380Z,1.20
2022-08-21T14:38:41.267Z,0.88
2022-08-21T14:40:43.850Z,0.93
2022-08-21T14:42:46.717Z,0.93
2022-08-21T14:44:48.489Z,0.75
2022-08-21T14:46:56.097Z,1.02
2022-08-21T14:51:00.908Z,1.00
2022-08-21T14:53:04.906Z,1.10
2022-08-21T14:55:17.398Z,1.00
2022-08-21T14:57:19.567Z,1.27
2022-08-21T14:59:21.858Z,1.05
2022-08-21T15:01:23.888Z,0.90
2022-08-21T15:03:26.934Z,0.88
2022-08-21T15:05:32.956Z,0.70
2022-08-21T15:07:34.710Z,0.90
2022-08-21T15:09:36.267Z,1.15
2022-08-21T15:11:41.980Z,0.82
2022-08-21T15:13:44.786Z,1.00
2022-08-21T15:15:48.999Z,1.20
2022-08-21T15:17:50.560Z,1.05
2022-08-21T15:19:52.074Z,1.17
2022-08-21T15:21:54.154Z,0.85
2022-08-21T15:23:55.781Z,0.90
2022-08-21T15:25:58.628Z,1.35
2022-08-21T15:28:02.460Z,1.02
2022-08-21T15:30:05.224Z,0.80
2022-08-21T15:32:18.101Z,0.90
2022-08-21T15:34:20.460Z,1.00
2022-08-21T15:36:24.809Z,0.82
2022-08-21T15:38:26.506Z,1.25
2022-08-21T15:40:28.518Z,1.10
2022-08-21T15:42:30.387Z,0.75
2022-08-21T15:44:31.941Z,0.90
2022-08-21T15:46:33.507Z,0.80
2022-08-21T15:48:34.972Z,0.60
2022-08-21T15:50:37.015Z,0.90
2022-08-21T15:52:40.082Z,0.73
2022-08-21T15:54:42.285Z,0.40
2022-08-21T15:56:48.280Z,0.70
2022-08-21T15:58:53.202Z,0.45
2022-08-21T16:00:54.816Z,0.80
2022-08-21T16:02:59.244Z,0.70
2022-08-21T16:05:01.053Z,0.80
2022-08-21T16:07:06.648Z,0.60
2022-08-21T16:11:16.650Z,0.63
2022-08-21T16:13:33.402Z,0.50
2022-08-21T16:15:35.012Z,0.60
2022-08-21T16:17:37.907Z,0.60
2022-08-21T16:19:39.792Z,0.52
2022-08-21T16:21:41.749Z,0.52
2022-08-21T16:23:44.040Z,0.70
2022-08-21T16:25:45.810Z,0.70
2022-08-21T16:27:59.505Z,0.80
2022-08-21T16:30:02.324Z,0.52
2022-08-21T16:32:05.186Z,0.50
2022-08-21T16:34:06.776Z,0.57
2022-08-21T16:36:09.662Z,0.60
2022-08-21T16:38:11.177Z,0.35
2022-08-21T16:40:13.387Z,0.40
2022-08-21T16:42:19.709Z,0.93
2022-08-21T16:44:24.383Z,0.55
2022-08-21T16:46:26.452Z,1.02
2022-08-21T16:48:32.345Z,0.55
2022-08-21T16:50:33.803Z,0.52
2022-08-21T16:52:35.416Z,0.50
2022-08-21T16:54:37.395Z,0.80
2022-08-21T16:56:41.377Z,0.55
2022-08-21T16:58:48.107Z,0.40
2022-08-21T17:00:49.793Z,0.60
2022-08-21T17:02:54.757Z,0.57
2022-08-21T17:04:56.324Z,0.50
2022-08-21T17:06:57.887Z,0.63
2022-08-21T17:09:01.080Z,0.65
2022-08-21T17:11:04.717Z,0.35
2022-08-21T17:13:09.660Z,0.70
2022-08-21T17:15:21.612Z,0.40
2022-08-21T17:17:23.253Z,0.60
2022-08-21T17:19:24.892Z,0.50
2022-08-21T17:21:26.637Z,0.45
2022-08-21T17:23:28.213Z,0.65
2022-08-21T17:25:30.597Z,0.63
2022-08-21T17:27:32.097Z,0.80
2022-08-21T17:29:39.883Z,0.68
2022-08-21T17:31:42.866Z,0.70
2022-08-21T17:33:52.091Z,0.93
2022-08-21T17:35:54.007Z,0.80
2022-08-21T17:37:55.566Z,0.90
2022-08-21T17:39:58.635Z,0.80
2022-08-21T17:42:05.357Z,1.00
2022-08-21T17:44:10.691Z,1.38
2022-08-21T17:46:19.088Z,0.80
2022-08-21T17:48:25.337Z,0.73
2022-08-21T17:50:27.146Z,1.23
2022-08-21T17:52:28.801Z,0.85
2022-08-21T17:54:30.330Z,1.00
2022-08-21T17:56:35.272Z,0.90
2022-08-21T17:58:37.219Z,1.10
2022-08-21T18:00:39.165Z,1.73
2022-08-21T18:02:43.461Z,0.90
2022-08-21T18:04:44.968Z,0.73
2022-08-21T18:06:46.552Z,0.93
2022-08-21T18:08:48.136Z,0.77
2022-08-21T18:10:50.469Z,1.00
2022-08-21T18:12:52.511Z,1.00
2022-08-21T18:14:54.087Z,1.33
2022-08-21T18:16:56.314Z,1.02
2022-08-21T18:18:58.239Z,1.00
2022-08-21T18:20:59.798Z,0.90
2022-08-21T18:23:01.677Z,0.90
2022-08-21T18:25:05.423Z,1.30
2022-08-21T18:27:09.709Z,1.13
2022-08-21T18:29:16.883Z,1.17
2022-08-21T18:31:19.373Z,1.00
2022-08-21T18:33:21.717Z,1.15
2022-08-21T18:35:23.465Z,1.00
2022-08-21T18:37:25.088Z,1.65
2022-08-21T18:39:36.404Z,1.25
2022-08-21T18:41:38.487Z,1.10
2022-08-21T18:43:39.986Z,1.15
2022-08-21T18:45:41.959Z,1.00
2022-08-21T18:47:50.121Z,0.80
2022-08-21T18:49:52.018Z,0.98
2022-08-21T18:51:53.592Z,1.55
2022-08-21T18:53:56.198Z,0.98
2022-08-21T18:56:04.869Z,0.90
2022-08-21T18:58:07.552Z,1.00
2022-08-21T19:00:13.126Z,1.02
2022-08-21T19:02:16.132Z,1.05
2022-08-21T19:04:41.159Z,1.05
2022-08-21T19:06:41.049Z,0.70
2022-08-21T19:08:47.888Z,0.98
2022-08-21T19:10:53.494Z,0.80
2022-08-21T19:12:57.851Z,0.80
2022-08-21T19:15:00.155Z,0.95
2022-08-21T19:17:02.766Z,0.80
2022-08-21T19:19:06.801Z,0.70
2022-08-21T19:21:08.827Z,0.60
2022-08-21T19:23:13.110Z,0.70
2022-08-21T19:25:14.612Z,0.93
2022-08-21T19:27:16.188Z,0.90
2022-08-21T19:29:19.770Z,0.80
2022-08-21T19:31:27.951Z,0.80
2022-08-21T19:33:37.514Z,0.60
2022-08-21T19:35:41.131Z,0.50
2022-08-21T19:37:42.714Z,0.70
2022-08-21T19:39:48.782Z,0.80
2022-08-21T19:41:57.307Z,0.90
2022-08-21T19:44:04.188Z,0.70
2022-08-21T19:46:05.778Z,0.70
2022-08-21T19:48:07.365Z,0.90
2022-08-21T19:52:32.692Z,0.77
2022-08-21T19:54:37.561Z,0.70
2022-08-21T19:56:39.167Z,0.73
2022-08-21T19:58:42.875Z,0.80
2022-08-21T20:00:44.405Z,0.60
2022-08-21T20:02:48.226Z,0.85
2022-08-21T20:07:11.434Z,0.88
2022-08-21T20:09:16.969Z,0.60
2022-08-21T20:11:32.974Z,0.98
2022-08-21T20:13:34.917Z,0.82
2022-08-21T20:15:36.505Z,0.60
2022-08-21T20:17:39.129Z,0.70
2022-08-21T20:19:43.687Z,0.68
2022-08-21T20:21:45.592Z,0.80
2022-08-21T20:26:10.227Z,0.80
2022-08-21T20:28:13.096Z,1.08
2022-08-21T20:30:16.524Z,0.80
2022-08-21T20:32:24.278Z,0.80
2022-08-21T20:34:26.316Z,0.85
2022-08-21T20:36:28.165Z,0.77
2022-08-21T20:38:29.701Z,0.88
2022-08-21T20:40:32.948Z,0.80
2022-08-21T20:42:34.596Z,0.88
2022-08-21T20:44:37.656Z,0.93
2022-08-21T20:46:48.473Z,1.05
2022-08-21T20:48:52.855Z,1.15
2022-08-21T20:51:08.376Z,0.75
2022-08-21T20:53:46.307Z,1.10
2022-08-21T20:55:51.069Z,0.93
2022-08-21T20:58:03.014Z,0.77
2022-08-21T21:00:14.447Z,1.02
2022-08-21T21:02:16.307Z,0.93
2022-08-21T21:04:37.235Z,0.80
2022-08-21T21:06:41.149Z,1.00
2022-08-21T21:08:54.141Z,1.02
2022-08-21T21:11:13.729Z,0.70
2022-08-21T21:13:20.411Z,0.88
2022-08-21T21:15:30.167Z,0.93
2022-08-21T21:17:37.991Z,0.90
2022-08-21T21:19:53.686Z,0.80
2022-08-21T21:22:02.745Z,0.82
2022-08-21T21:24:18.984Z,0.82
2022-08-21T21:26:46.184Z,0.75
2022-08-21T21:28:50.183Z,0.80
2022-08-21T21:30:57.598Z,1.00
2022-08-21T21:32:59.960Z,1.00
2022-08-21T21:35:04.793Z,1.48
2022-08-21T21:37:07.858Z,0.65
2022-08-21T21:42:30.298Z,0.82
2022-08-21T21:45:17.081Z,0.77
2022-08-21T21:47:31.459Z,0.95
2022-08-21T21:49:42.882Z,0.90
2022-08-21T21:52:03.256Z,0.70
2022-08-21T21:54:22.585Z,0.90
2022-08-21T21:56:34.101Z,0.88
2022-08-21T21:59:08.263Z,0.93
2022-08-21T22:01:23.933Z,0.80
2022-08-21T22:03:38.263Z,1.00
2022-08-21T22:06:01.123Z,1.20
2022-08-21T22:08:12.741Z,0.80
2022-08-21T22:10:30.563Z,0.80
2022-08-21T22:12:56.621Z,1.25
2022-08-21T22:15:11.159Z,1.00
2022-08-21T22:17:29.790Z,0.80
2022-08-21T22:19:38.726Z,1.05
2022-08-21T22:21:49.179Z,0.90
2022-08-21T22:23:54.161Z,0.93
2022-08-21T22:26:03.443Z,0.85
2022-08-21T22:28:11.384Z,0.82
2022-08-21T22:30:35.990Z,0.88
2022-08-21T22:32:46.917Z,0.80
2022-08-21T22:35:09.500Z,0.82
2022-08-21T22:37:12.812Z,0.75
2022-08-21T22:39:27.827Z,1.02
2022-08-21T22:41:37.587Z,0.85
2022-08-21T22:43:55.651Z,0.95
2022-08-21T22:46:05.858Z,1.10
2022-08-21T22:48:22.406Z,0.63
2022-08-21T22:50:24.258Z,0.85
2022-08-21T22:52:51.954Z,1.15
2022-08-21T22:55:01.312Z,0.95
2022-08-21T22:57:12.278Z,1.02
2022-08-21T22:59:25.366Z,1.00
2022-08-21T23:01:26.818Z,1.00
2022-08-21T23:03:33.811Z,1.00
2022-08-21T23:05:36.550Z,1.30
2022-08-21T23:07:44.381Z,1.00
2022-08-21T23:09:53.358Z,0.90
2022-08-21T23:11:58.168Z,0.90
2022-08-21T23:14:00.054Z,0.75
2022-08-21T23:16:12.239Z,1.17
2022-08-21T23:18:33.884Z,1.00
2022-08-21T23:20:57.682Z,1.02
2022-08-21T23:23:17.843Z,0.70
2022-08-21T23:25:22.379Z,1.15
2022-08-21T23:27:42.191Z,0.60
2022-08-21T23:30:05.495Z,1.05
2022-08-21T23:32:20.597Z,0.82
2022-08-21T23:34:37.302Z,1.00
2022-08-21T23:37:48.461Z,0.90
2022-08-21T23:40:13.035Z,0.68
2022-08-21T23:42:58.395Z,0.85
2022-08-21T23:45:17.371Z,1.00
2022-08-21T23:47:50.944Z,0.77
2022-08-21T23:50:13.861Z,0.82
2022-08-21T23:52:36.667Z,0.77
2022-08-21T23:55:03.791Z,1.17
2022-08-21T23:57:40.303Z,0.90
